sensor_id;sensor_type;location;lat;lon;timestamp;P1;durP1;ratioP1;P2;durP2;ratioP2
22441;SDS011;11388;54.456;9.752;2023-07-30T00:01:34;8.98;;;4.13;;
22441;SDS011;11388;54.456;9.752;2023-07-30T00:04:03;6.88;;;3.90;;
22441;SDS011;11388;54.456;9.752;2023-07-30T00:06:29;10.52;;;4.38;;
22441;SDS011;11388;54.456;9.752;2023-07-30T00:08:55;8.43;;;4.25;;
22441;SDS011;11388;54.456;9.752;2023-07-30T00:11:21;9.38;;;4.10;;
22441;SDS011;11388;54.456;9.752;2023-07-30T00:13:47;7.70;;;4.25;;
22441;SDS011;11388;54.456;9.752;2023-07-30T00:16:16;11.32;;;4.55;;
22441;SDS011;11388;54.456;9.752;2023-07-30T00:18:47;10.02;;;4.40;;
22441;SDS011;11388;54.456;9.752;2023-07-30T00:21:21;9.48;;;4.30;;
22441;SDS011;11388;54.456;9.752;2023-07-30T00:24:01;8.77;;;4.00;;
22441;SDS011;11388;54.456;9.752;2023-07-30T00:26:41;8.80;;;3.55;;
22441;SDS011;11388;54.456;9.752;2023-07-30T00:29:09;8.43;;;4.10;;
22441;SDS011;11388;54.456;9.752;2023-07-30T00:31:38;9.55;;;4.03;;
22441;SDS011;11388;54.456;9.752;2023-07-30T00:34:07;8.63;;;4.15;;
22441;SDS011;11388;54.456;9.752;2023-07-30T00:36:38;6.57;;;3.70;;
22441;SDS011;11388;54.456;9.752;2023-07-30T00:39:04;9.65;;;4.00;;
22441;SDS011;11388;54.456;9.752;2023-07-30T00:41:30;7.07;;;3.83;;
22441;SDS011;11388;54.456;9.752;2023-07-30T00:43:56;10.32;;;4.40;;
22441;SDS011;11388;54.456;9.752;2023-07-30T00:46:21;7.68;;;4.10;;
22441;SDS011;11388;54.456;9.752;2023-07-30T00:48:47;9.25;;;4.43;;
22441;SDS011;11388;54.456;9.752;2023-07-30T00:51:16;8.95;;;4.25;;
22441;SDS011;11388;54.456;9.752;2023-07-30T00:53:42;8.63;;;4.25;;
22441;SDS011;11388;54.456;9.752;2023-07-30T00:56:08;9.02;;;4.55;;
22441;SDS011;11388;54.456;9.752;2023-07-30T00:58:34;10.43;;;5.07;;
22441;SDS011;11388;54.456;9.752;2023-07-30T01:01:01;7.97;;;4.32;;
22441;SDS011;11388;54.456;9.752;2023-07-30T01:03:27;9.60;;;4.45;;
22441;SDS011;11388;54.456;9.752;2023-07-30T01:05:56;9.52;;;4.15;;
22441;SDS011;11388;54.456;9.752;2023-07-30T01:08:22;8.68;;;3.95;;
22441;SDS011;11388;54.456;9.752;2023-07-30T01:10:51;10.23;;;4.78;;
22441;SDS011;11388;54.456;9.752;2023-07-30T01:13:18;9.95;;;4.45;;
22441;SDS011;11388;54.456;9.752;2023-07-30T01:15:44;8.50;;;4.30;;
22441;SDS011;11388;54.456;9.752;2023-07-30T01:18:11;11.25;;;5.13;;
22441;SDS011;11388;54.456;9.752;2023-07-30T01:20:40;10.27;;;4.70;;
22441;SDS011;11388;54.456;9.752;2023-07-30T01:23:08;9.02;;;5.03;;
22441;SDS011;11388;54.456;9.752;2023-07-30T01:25:37;10.40;;;5.03;;
22441;SDS011;11388;54.456;9.752;2023-07-30T01:28:06;10.98;;;5.57;;
22441;SDS011;11388;54.456;9.752;2023-07-30T01:30:42;10.55;;;5.30;;
22441;SDS011;11388;54.456;9.752;2023-07-30T01:33:10;10.18;;;5.07;;
22441;SDS011;11388;54.456;9.752;2023-07-30T01:35:39;9.88;;;5.15;;
22441;SDS011;11388;54.456;9.752;2023-07-30T01:38:08;8.82;;;5.00;;
22441;SDS011;11388;54.456;9.752;2023-07-30T01:40:38;9.98;;;4.82;;
22441;SDS011;11388;54.456;9.752;2023-07-30T01:43:04;10.52;;;4.95;;
22441;SDS011;11388;54.456;9.752;2023-07-30T01:45:30;11.02;;;5.15;;
22441;SDS011;11388;54.456;9.752;2023-07-30T01:47:59;10.98;;;5.20;;
22441;SDS011;11388;54.456;9.752;2023-07-30T01:50:28;8.85;;;5.00;;
22441;SDS011;11388;54.456;9.752;2023-07-30T01:52:56;10.60;;;5.13;;
22441;SDS011;11388;54.456;9.752;2023-07-30T01:55:22;12.70;;;4.97;;
22441;SDS011;11388;54.456;9.752;2023-07-30T01:57:48;10.90;;;5.30;;
22441;SDS011;11388;54.456;9.752;2023-07-30T02:00:14;11.40;;;5.38;;
22441;SDS011;11388;54.456;9.752;2023-07-30T02:02:40;12.52;;;5.25;;
22441;SDS011;11388;54.456;9.752;2023-07-30T02:05:08;13.13;;;5.60;;
22441;SDS011;11388;54.456;9.752;2023-07-30T02:07:34;12.65;;;5.72;;
22441;SDS011;11388;54.456;9.752;2023-07-30T02:10:00;14.40;;;6.00;;
22441;SDS011;11388;54.456;9.752;2023-07-30T02:12:26;10.95;;;5.97;;
22441;SDS011;11388;54.456;9.752;2023-07-30T02:14:52;11.75;;;5.95;;
22441;SDS011;11388;54.456;9.752;2023-07-30T02:17:18;11.88;;;6.22;;
22441;SDS011;11388;54.456;9.752;2023-07-30T02:19:43;13.80;;;6.40;;
22441;SDS011;11388;54.456;9.752;2023-07-30T02:22:09;11.27;;;6.47;;
22441;SDS011;11388;54.456;9.752;2023-07-30T02:24:38;15.02;;;7.00;;
22441;SDS011;11388;54.456;9.752;2023-07-30T02:27:04;11.43;;;6.25;;
22441;SDS011;11388;54.456;9.752;2023-07-30T02:29:30;15.38;;;7.10;;
22441;SDS011;11388;54.456;9.752;2023-07-30T02:31:56;14.93;;;6.65;;
22441;SDS011;11388;54.456;9.752;2023-07-30T02:34:25;12.50;;;6.82;;
22441;SDS011;11388;54.456;9.752;2023-07-30T02:36:53;14.27;;;6.50;;
22441;SDS011;11388;54.456;9.752;2023-07-30T02:39:21;11.85;;;6.60;;
22441;SDS011;11388;54.456;9.752;2023-07-30T02:41:47;15.02;;;7.05;;
22441;SDS011;11388;54.456;9.752;2023-07-30T02:44:16;12.48;;;7.30;;
22441;SDS011;11388;54.456;9.752;2023-07-30T02:46:42;12.15;;;6.82;;
22441;SDS011;11388;54.456;9.752;2023-07-30T02:49:11;12.85;;;7.00;;
22441;SDS011;11388;54.456;9.752;2023-07-30T02:51:39;12.90;;;6.50;;
22441;SDS011;11388;54.456;9.752;2023-07-30T02:54:13;12.23;;;6.43;;
22441;SDS011;11388;54.456;9.752;2023-07-30T02:56:41;12.98;;;6.60;;
22441;SDS011;11388;54.456;9.752;2023-07-30T02:59:10;12.45;;;6.90;;
22441;SDS011;11388;54.456;9.752;2023-07-30T03:01:39;10.65;;;6.13;;
22441;SDS011;11388;54.456;9.752;2023-07-30T03:04:05;13.55;;;6.80;;
22441;SDS011;11388;54.456;9.752;2023-07-30T03:06:34;12.20;;;6.40;;
22441;SDS011;11388;54.456;9.752;2023-07-30T03:09:02;9.45;;;6.18;;
22441;SDS011;11388;54.456;9.752;2023-07-30T03:11:35;12.10;;;6.80;;
22441;SDS011;11388;54.456;9.752;2023-07-30T03:14:01;8.63;;;5.75;;
22441;SDS011;11388;54.456;9.752;2023-07-30T03:16:27;10.38;;;5.82;;
22441;SDS011;11388;54.456;9.752;2023-07-30T03:18:53;13.07;;;6.25;;
22441;SDS011;11388;54.456;9.752;2023-07-30T03:21:22;8.20;;;5.00;;
22441;SDS011;11388;54.456;9.752;2023-07-30T03:23:47;12.90;;;6.10;;
22441;SDS011;11388;54.456;9.752;2023-07-30T03:26:16;9.20;;;5.97;;
22441;SDS011;11388;54.456;9.752;2023-07-30T03:28:45;12.88;;;5.63;;
22441;SDS011;11388;54.456;9.752;2023-07-30T03:31:13;11.27;;;5.13;;
22441;SDS011;11388;54.456;9.752;2023-07-30T03:33:39;9.27;;;5.32;;
22441;SDS011;11388;54.456;9.752;2023-07-30T03:36:10;8.35;;;4.60;;
22441;SDS011;11388;54.456;9.752;2023-07-30T03:38:36;7.53;;;4.85;;
22441;SDS011;11388;54.456;9.752;2023-07-30T03:41:04;9.77;;;4.68;;
22441;SDS011;11388;54.456;9.752;2023-07-30T03:43:36;8.70;;;4.10;;
22441;SDS011;11388;54.456;9.752;2023-07-30T03:46:05;9.30;;;4.28;;
22441;SDS011;11388;54.456;9.752;2023-07-30T03:48:35;8.68;;;4.10;;
22441;SDS011;11388;54.456;9.752;2023-07-30T03:51:03;7.38;;;3.80;;
22441;SDS011;11388;54.456;9.752;2023-07-30T03:53:32;7.75;;;3.75;;
22441;SDS011;11388;54.456;9.752;2023-07-30T03:55:58;6.93;;;3.63;;
22441;SDS011;11388;54.456;9.752;2023-07-30T03:58:27;8.20;;;3.95;;
22441;SDS011;11388;54.456;9.752;2023-07-30T04:00:56;7.60;;;3.53;;
22441;SDS011;11388;54.456;9.752;2023-07-30T04:06:31;8.15;;;4.65;;
22441;SDS011;11388;54.456;9.752;2023-07-30T04:08:57;7.25;;;3.92;;
22441;SDS011;11388;54.456;9.752;2023-07-30T04:11:23;6.95;;;3.85;;
22441;SDS011;11388;54.456;9.752;2023-07-30T04:13:49;9.52;;;4.18;;
22441;SDS011;11388;54.456;9.752;2023-07-30T04:16:15;7.80;;;3.80;;
22441;SDS011;11388;54.456;9.752;2023-07-30T04:18:41;7.47;;;4.18;;
22441;SDS011;11388;54.456;9.752;2023-07-30T04:21:07;6.00;;;3.70;;
22441;SDS011;11388;54.456;9.752;2023-07-30T04:23:36;7.35;;;3.75;;
22441;SDS011;11388;54.456;9.752;2023-07-30T04:26:01;6.53;;;3.72;;
22441;SDS011;11388;54.456;9.752;2023-07-30T04:28:27;10.15;;;3.95;;
22441;SDS011;11388;54.456;9.752;2023-07-30T04:30:53;7.88;;;3.90;;
22441;SDS011;11388;54.456;9.752;2023-07-30T04:33:19;7.35;;;4.63;;
22441;SDS011;11388;54.456;9.752;2023-07-30T04:35:44;6.85;;;4.35;;
22441;SDS011;11388;54.456;9.752;2023-07-30T04:38:10;7.40;;;4.65;;
22441;SDS011;11388;54.456;9.752;2023-07-30T04:40:36;6.85;;;4.32;;
22441;SDS011;11388;54.456;9.752;2023-07-30T04:43:02;6.20;;;4.45;;
22441;SDS011;11388;54.456;9.752;2023-07-30T04:45:28;7.93;;;4.60;;
22441;SDS011;11388;54.456;9.752;2023-07-30T04:47:53;7.30;;;4.85;;
22441;SDS011;11388;54.456;9.752;2023-07-30T04:50:19;7.80;;;4.97;;
22441;SDS011;11388;54.456;9.752;2023-07-30T04:52:45;6.93;;;5.10;;
22441;SDS011;11388;54.456;9.752;2023-07-30T04:55:11;9.13;;;5.30;;
22441;SDS011;11388;54.456;9.752;2023-07-30T04:57:36;7.00;;;5.60;;
22441;SDS011;11388;54.456;9.752;2023-07-30T05:00:02;9.80;;;6.00;;
22441;SDS011;11388;54.456;9.752;2023-07-30T05:02:29;8.55;;;5.68;;
22441;SDS011;11388;54.456;9.752;2023-07-30T05:04:55;9.52;;;7.03;;
22441;SDS011;11388;54.456;9.752;2023-07-30T05:07:20;9.63;;;7.40;;
22441;SDS011;11388;54.456;9.752;2023-07-30T05:09:46;11.52;;;7.80;;
22441;SDS011;11388;54.456;9.752;2023-07-30T05:12:12;12.93;;;8.30;;
22441;SDS011;11388;54.456;9.752;2023-07-30T05:14:38;12.65;;;8.85;;
22441;SDS011;11388;54.456;9.752;2023-07-30T05:17:04;10.73;;;8.50;;
22441;SDS011;11388;54.456;9.752;2023-07-30T05:19:32;13.48;;;9.27;;
22441;SDS011;11388;54.456;9.752;2023-07-30T05:21:58;15.02;;;10.13;;
22441;SDS011;11388;54.456;9.752;2023-07-30T05:24:27;12.75;;;9.45;;
22441;SDS011;11388;54.456;9.752;2023-07-30T05:26:56;11.52;;;9.35;;
22441;SDS011;11388;54.456;9.752;2023-07-30T05:29:22;12.45;;;9.32;;
22441;SDS011;11388;54.456;9.752;2023-07-30T05:31:47;11.13;;;8.85;;
22441;SDS011;11388;54.456;9.752;2023-07-30T05:34:13;13.20;;;9.45;;
22441;SDS011;11388;54.456;9.752;2023-07-30T05:36:39;11.80;;;8.90;;
22441;SDS011;11388;54.456;9.752;2023-07-30T05:39:04;11.32;;;9.57;;
22441;SDS011;11388;54.456;9.752;2023-07-30T05:41:30;13.20;;;9.30;;
22441;SDS011;11388;54.456;9.752;2023-07-30T05:43:56;11.48;;;8.85;;
22441;SDS011;11388;54.456;9.752;2023-07-30T05:46:22;11.93;;;8.75;;
22441;SDS011;11388;54.456;9.752;2023-07-30T05:48:47;11.70;;;8.70;;
22441;SDS011;11388;54.456;9.752;2023-07-30T05:51:13;13.82;;;10.05;;
22441;SDS011;11388;54.456;9.752;2023-07-30T05:53:42;12.43;;;9.13;;
22441;SDS011;11388;54.456;9.752;2023-07-30T05:56:08;15.13;;;10.15;;
22441;SDS011;11388;54.456;9.752;2023-07-30T05:58:33;15.32;;;10.30;;
22441;SDS011;11388;54.456;9.752;2023-07-30T06:00:59;13.10;;;10.13;;
22441;SDS011;11388;54.456;9.752;2023-07-30T06:03:25;12.00;;;9.48;;
22441;SDS011;11388;54.456;9.752;2023-07-30T06:05:51;13.35;;;10.07;;
22441;SDS011;11388;54.456;9.752;2023-07-30T06:08:16;15.63;;;10.57;;
22441;SDS011;11388;54.456;9.752;2023-07-30T06:10:42;13.02;;;10.60;;
22441;SDS011;11388;54.456;9.752;2023-07-30T06:13:11;13.80;;;10.32;;
22441;SDS011;11388;54.456;9.752;2023-07-30T06:15:37;13.90;;;10.15;;
22441;SDS011;11388;54.456;9.752;2023-07-30T06:18:06;14.15;;;9.38;;
22441;SDS011;11388;54.456;9.752;2023-07-30T09:16:34;5.35;;;1.92;;
22441;SDS011;11388;54.456;9.752;2023-07-30T09:19:00;5.38;;;1.90;;
22441;SDS011;11388;54.456;9.752;2023-07-30T14:26:03;7.32;;;6.47;;
22441;SDS011;11388;54.456;9.752;2023-07-30T14:39:55;4.60;;;1.50;;
22441;SDS011;11388;54.456;9.752;2023-07-30T16:34:49;17.95;;;4.25;;
22441;SDS011;11388;54.456;9.752;2023-07-30T16:37:25;17.55;;;4.72;;
22441;SDS011;11388;54.456;9.752;2023-07-30T17:32:14;11.05;;;2.53;;
22441;SDS011;11388;54.456;9.752;2023-07-30T17:34:42;11.48;;;2.60;;
22441;SDS011;11388;54.456;9.752;2023-07-30T17:37:20;9.77;;;2.40;;
22441;SDS011;11388;54.456;9.752;2023-07-30T17:39:48;9.80;;;2.45;;
22441;SDS011;11388;54.456;9.752;2023-07-30T17:42:24;10.63;;;3.78;;
22441;SDS011;11388;54.456;9.752;2023-07-30T17:44:51;11.30;;;2.40;;
22441;SDS011;11388;54.456;9.752;2023-07-30T17:47:21;9.13;;;3.72;;
22441;SDS011;11388;54.456;9.752;2023-07-30T17:49:57;9.38;;;2.30;;
22441;SDS011;11388;54.456;9.752;2023-07-30T17:52:39;9.85;;;2.65;;
22441;SDS011;11388;54.456;9.752;2023-07-30T17:55:15;10.70;;;2.28;;
22441;SDS011;11388;54.456;9.752;2023-07-30T18:00:22;9.88;;;2.60;;
22441;SDS011;11388;54.456;9.752;2023-07-30T18:02:53;14.75;;;3.17;;
22441;SDS011;11388;54.456;9.752;2023-07-30T18:05:37;11.23;;;2.63;;
22441;SDS011;11388;54.456;9.752;2023-07-30T18:08:09;9.13;;;2.28;;
22441;SDS011;11388;54.456;9.752;2023-07-30T18:10:38;11.57;;;2.58;;
22441;SDS011;11388;54.456;9.752;2023-07-30T18:13:07;10.70;;;5.68;;
22441;SDS011;11388;54.456;9.752;2023-07-30T18:15:35;11.10;;;2.30;;
22441;SDS011;11388;54.456;9.752;2023-07-30T18:18:04;7.70;;;2.10;;
22441;SDS011;11388;54.456;9.752;2023-07-30T18:20:30;8.65;;;1.92;;
22441;SDS011;11388;54.456;9.752;2023-07-30T18:22:56;7.07;;;1.85;;
22441;SDS011;11388;54.456;9.752;2023-07-30T18:25:22;7.95;;;2.08;;
22441;SDS011;11388;54.456;9.752;2023-07-30T18:27:48;6.90;;;2.58;;
22441;SDS011;11388;54.456;9.752;2023-07-30T18:30:13;7.78;;;3.03;;
22441;SDS011;11388;54.456;9.752;2023-07-30T18:32:39;10.57;;;2.53;;
22441;SDS011;11388;54.456;9.752;2023-07-30T18:35:05;7.50;;;1.70;;
22441;SDS011;11388;54.456;9.752;2023-07-30T18:37:33;7.78;;;1.77;;
22441;SDS011;11388;54.456;9.752;2023-07-30T18:39:59;9.27;;;1.90;;
22441;SDS011;11388;54.456;9.752;2023-07-30T18:42:25;7.38;;;1.75;;
22441;SDS011;11388;54.456;9.752;2023-07-30T18:44:53;9.85;;;1.60;;
22441;SDS011;11388;54.456;9.752;2023-07-30T18:47:31;7.72;;;1.63;;
22441;SDS011;11388;54.456;9.752;2023-07-30T18:49:59;8.43;;;4.07;;
22441;SDS011;11388;54.456;9.752;2023-07-30T18:52:27;7.25;;;1.52;;
22441;SDS011;11388;54.456;9.752;2023-07-30T18:54:54;7.47;;;1.70;;
22441;SDS011;11388;54.456;9.752;2023-07-30T18:57:30;9.77;;;2.05;;
22441;SDS011;11388;54.456;9.752;2023-07-30T18:59:57;9.20;;;1.60;;
22441;SDS011;11388;54.456;9.752;2023-07-30T19:02:23;8.13;;;1.77;;
22441;SDS011;11388;54.456;9.752;2023-07-30T19:04:49;10.57;;;2.05;;
22441;SDS011;11388;54.456;9.752;2023-07-30T19:07:15;7.90;;;1.67;;
22441;SDS011;11388;54.456;9.752;2023-07-30T19:09:41;8.02;;;1.98;;
22441;SDS011;11388;54.456;9.752;2023-07-30T19:12:09;9.88;;;1.60;;
22441;SDS011;11388;54.456;9.752;2023-07-30T19:14:35;6.78;;;1.40;;
22441;SDS011;11388;54.456;9.752;2023-07-30T19:17:01;9.27;;;1.48;;
22441;SDS011;11388;54.456;9.752;2023-07-30T19:19:26;10.45;;;1.90;;
22441;SDS011;11388;54.456;9.752;2023-07-30T19:21:53;8.55;;;1.70;;
22441;SDS011;11388;54.456;9.752;2023-07-30T19:24:20;9.75;;;1.77;;
22441;SDS011;11388;54.456;9.752;2023-07-30T19:26:47;8.05;;;1.38;;
22441;SDS011;11388;54.456;9.752;2023-07-30T19:29:20;8.68;;;1.50;;
22441;SDS011;11388;54.456;9.752;2023-07-30T19:31:46;8.27;;;1.75;;
22441;SDS011;11388;54.456;9.752;2023-07-30T19:34:15;9.02;;;1.83;;
22441;SDS011;11388;54.456;9.752;2023-07-30T19:36:43;7.32;;;1.60;;
22441;SDS011;11388;54.456;9.752;2023-07-30T19:39:09;6.85;;;1.83;;
22441;SDS011;11388;54.456;9.752;2023-07-30T19:41:35;7.43;;;1.88;;
22441;SDS011;11388;54.456;9.752;2023-07-30T19:44:01;8.85;;;1.70;;
22441;SDS011;11388;54.456;9.752;2023-07-30T19:46:32;7.72;;;1.50;;
22441;SDS011;11388;54.456;9.752;2023-07-30T19:49:00;8.82;;;1.60;;
22441;SDS011;11388;54.456;9.752;2023-07-30T19:51:26;9.63;;;1.70;;
22441;SDS011;11388;54.456;9.752;2023-07-30T19:54:13;8.48;;;1.63;;
22441;SDS011;11388;54.456;9.752;2023-07-30T19:56:38;10.45;;;2.25;;
22441;SDS011;11388;54.456;9.752;2023-07-30T19:59:04;8.85;;;1.73;;
22441;SDS011;11388;54.456;9.752;2023-07-30T20:01:33;8.15;;;1.73;;
22441;SDS011;11388;54.456;9.752;2023-07-30T20:03:59;8.48;;;1.80;;
22441;SDS011;11388;54.456;9.752;2023-07-30T20:06:25;8.82;;;1.58;;
22441;SDS011;11388;54.456;9.752;2023-07-30T20:08:50;6.45;;;1.58;;
22441;SDS011;11388;54.456;9.752;2023-07-30T20:11:16;10.70;;;1.90;;
22441;SDS011;11388;54.456;9.752;2023-07-30T20:13:42;9.52;;;1.80;;
22441;SDS011;11388;54.456;9.752;2023-07-30T20:16:11;8.20;;;1.60;;
22441;SDS011;11388;54.456;9.752;2023-07-30T20:18:40;9.45;;;1.40;;
22441;SDS011;11388;54.456;9.752;2023-07-30T20:21:10;7.43;;;1.50;;
22441;SDS011;11388;54.456;9.752;2023-07-30T20:26:14;8.77;;;1.55;;
22441;SDS011;11388;54.456;9.752;2023-07-30T20:28:41;8.93;;;1.83;;
22441;SDS011;11388;54.456;9.752;2023-07-30T20:31:08;7.97;;;1.65;;
22441;SDS011;11388;54.456;9.752;2023-07-30T20:33:35;7.95;;;1.70;;
22441;SDS011;11388;54.456;9.752;2023-07-30T20:36:01;8.85;;;1.80;;
22441;SDS011;11388;54.456;9.752;2023-07-30T20:38:27;6.63;;;1.48;;
22441;SDS011;11388;54.456;9.752;2023-07-30T20:40:53;8.98;;;1.60;;
22441;SDS011;11388;54.456;9.752;2023-07-30T20:45:47;9.25;;;1.88;;
22441;SDS011;11388;54.456;9.752;2023-07-30T20:48:13;9.93;;;1.58;;
22441;SDS011;11388;54.456;9.752;2023-07-30T20:50:39;8.38;;;1.60;;
22441;SDS011;11388;54.456;9.752;2023-07-30T20:53:05;7.55;;;1.42;;
22441;SDS011;11388;54.456;9.752;2023-07-30T20:55:31;6.13;;;1.50;;
22441;SDS011;11388;54.456;9.752;2023-07-30T20:57:57;8.32;;;1.35;;
22441;SDS011;11388;54.456;9.752;2023-07-30T21:00:23;6.88;;;1.48;;
22441;SDS011;11388;54.456;9.752;2023-07-30T21:02:49;7.85;;;1.63;;
22441;SDS011;11388;54.456;9.752;2023-07-30T21:05:15;8.90;;;1.70;;
22441;SDS011;11388;54.456;9.752;2023-07-30T21:07:41;7.38;;;1.50;;
22441;SDS011;11388;54.456;9.752;2023-07-30T21:10:07;10.25;;;1.40;;
22441;SDS011;11388;54.456;9.752;2023-07-30T21:12:33;8.73;;;1.50;;
22441;SDS011;11388;54.456;9.752;2023-07-30T21:14:59;6.82;;;1.42;;
22441;SDS011;11388;54.456;9.752;2023-07-30T21:17:28;8.75;;;1.95;;
22441;SDS011;11388;54.456;9.752;2023-07-30T21:19:54;7.72;;;1.95;;
22441;SDS011;11388;54.456;9.752;2023-07-30T21:22:20;8.02;;;1.70;;
22441;SDS011;11388;54.456;9.752;2023-07-30T21:24:49;7.80;;;1.40;;
22441;SDS011;11388;54.456;9.752;2023-07-30T21:27:15;9.70;;;1.80;;
22441;SDS011;11388;54.456;9.752;2023-07-30T21:29:42;5.38;;;1.40;;
22441;SDS011;11388;54.456;9.752;2023-07-30T21:32:11;6.97;;;1.30;;
22441;SDS011;11388;54.456;9.752;2023-07-30T21:34:37;5.97;;;1.30;;
22441;SDS011;11388;54.456;9.752;2023-07-30T21:37:03;4.63;;;1.20;;
22441;SDS011;11388;54.456;9.752;2023-07-30T21:39:29;8.02;;;1.52;;
22441;SDS011;11388;54.456;9.752;2023-07-30T21:41:55;6.47;;;1.20;;
22441;SDS011;11388;54.456;9.752;2023-07-30T21:44:20;7.85;;;1.65;;
22441;SDS011;11388;54.456;9.752;2023-07-30T21:46:46;8.18;;;1.73;;
22441;SDS011;11388;54.456;9.752;2023-07-30T21:49:12;6.82;;;1.70;;
22441;SDS011;11388;54.456;9.752;2023-07-30T21:51:37;6.97;;;1.77;;
22441;SDS011;11388;54.456;9.752;2023-07-30T21:54:03;10.02;;;1.60;;
22441;SDS011;11388;54.456;9.752;2023-07-30T21:56:29;6.72;;;1.63;;
22441;SDS011;11388;54.456;9.752;2023-07-30T21:58:55;8.90;;;1.52;;
22441;SDS011;11388;54.456;9.752;2023-07-30T22:01:20;7.53;;;1.30;;
22441;SDS011;11388;54.456;9.752;2023-07-30T22:03:46;8.55;;;1.60;;
22441;SDS011;11388;54.456;9.752;2023-07-30T22:06:12;5.97;;;1.60;;
22441;SDS011;11388;54.456;9.752;2023-07-30T22:08:38;7.13;;;1.35;;
22441;SDS011;11388;54.456;9.752;2023-07-30T22:11:04;5.15;;;1.23;;
22441;SDS011;11388;54.456;9.752;2023-07-30T22:13:29;7.78;;;1.60;;
22441;SDS011;11388;54.456;9.752;2023-07-30T22:15:57;4.95;;;1.50;;
22441;SDS011;11388;54.456;9.752;2023-07-30T22:18:23;8.20;;;1.38;;
22441;SDS011;11388;54.456;9.752;2023-07-30T22:20:49;5.78;;;1.25;;
22441;SDS011;11388;54.456;9.752;2023-07-30T22:23:15;7.63;;;1.50;;
22441;SDS011;11388;54.456;9.752;2023-07-30T22:25:40;4.88;;;1.20;;
22441;SDS011;11388;54.456;9.752;2023-07-30T22:28:06;3.35;;;1.10;;
22441;SDS011;11388;54.456;9.752;2023-07-30T22:30:32;8.65;;;1.60;;
22441;SDS011;11388;54.456;9.752;2023-07-30T22:33:00;6.72;;;1.42;;
22441;SDS011;11388;54.456;9.752;2023-07-30T22:35:26;5.10;;;1.20;;
22441;SDS011;11388;54.456;9.752;2023-07-30T22:37:52;6.38;;;1.00;;
22441;SDS011;11388;54.456;9.752;2023-07-30T22:40:17;5.10;;;1.20;;
22441;SDS011;11388;54.456;9.752;2023-07-30T22:42:58;7.25;;;1.27;;
22441;SDS011;11388;54.456;9.752;2023-07-30T22:45:24;3.97;;;1.02;;
22441;SDS011;11388;54.456;9.752;2023-07-30T22:47:50;4.18;;;1.17;;
22441;SDS011;11388;54.456;9.752;2023-07-30T22:50:16;5.85;;;1.30;;
22441;SDS011;11388;54.456;9.752;2023-07-30T22:52:42;6.00;;;1.00;;
22441;SDS011;11388;54.456;9.752;2023-07-30T22:55:07;2.97;;;0.95;;
22441;SDS011;11388;54.456;9.752;2023-07-30T22:57:34;3.60;;;0.95;;
22441;SDS011;11388;54.456;9.752;2023-07-30T23:00:00;5.93;;;0.95;;
22441;SDS011;11388;54.456;9.752;2023-07-30T23:02:26;4.95;;;1.02;;
22441;SDS011;11388;54.456;9.752;2023-07-30T23:04:51;4.75;;;1.13;;
22441;SDS011;11388;54.456;9.752;2023-07-30T23:07:17;2.90;;;0.93;;
22441;SDS011;11388;54.456;9.752;2023-07-30T23:09:43;4.47;;;1.00;;
22441;SDS011;11388;54.456;9.752;2023-07-30T23:12:09;4.75;;;0.70;;
22441;SDS011;11388;54.456;9.752;2023-07-30T23:14:34;3.67;;;1.00;;
22441;SDS011;11388;54.456;9.752;2023-07-30T23:17:03;4.28;;;1.30;;
22441;SDS011;11388;54.456;9.752;2023-07-30T23:19:29;15.27;;;2.10;;
22441;SDS011;11388;54.456;9.752;2023-07-30T23:21:54;5.60;;;1.33;;
22441;SDS011;11388;54.456;9.752;2023-07-30T23:24:20;5.45;;;1.40;;
22441;SDS011;11388;54.456;9.752;2023-07-30T23:26:46;4.65;;;1.10;;
22441;SDS011;11388;54.456;9.752;2023-07-30T23:29:12;5.47;;;1.42;;
22441;SDS011;11388;54.456;9.752;2023-07-30T23:31:37;5.50;;;1.40;;
22441;SDS011;11388;54.456;9.752;2023-07-30T23:34:03;4.95;;;1.17;;
22441;SDS011;11388;54.456;9.752;2023-07-30T23:36:29;6.43;;;1.40;;
22441;SDS011;11388;54.456;9.752;2023-07-30T23:38:54;4.47;;;1.30;;
22441;SDS011;11388;54.456;9.752;2023-07-30T23:41:20;5.35;;;1.42;;
22441;SDS011;11388;54.456;9.752;2023-07-30T23:43:46;5.40;;;1.30;;
22441;SDS011;11388;54.456;9.752;2023-07-30T23:46:12;4.05;;;1.05;;
22441;SDS011;11388;54.456;9.752;2023-07-30T23:48:38;4.82;;;1.30;;
22441;SDS011;11388;54.456;9.752;2023-07-30T23:51:04;5.80;;;1.20;;
22441;SDS011;11388;54.456;9.752;2023-07-30T23:53:31;5.75;;;1.60;;
22441;SDS011;11388;54.456;9.752;2023-07-30T23:55:57;7.15;;;1.48;;
22441;SDS011;11388;54.456;9.752;2023-07-30T23:58:23;8.35;;;1.63;;
